Time;durP1;ratioP1;P1;durP2;ratioP2;P2;SDS_P1;SDS_P2;PMS_P1;PMS_P2;Temp;Humidity;BMP_temperature;BMP_pressure;BME280_temperature;BME280_humidity;BME280_pressure;Samples;Min_cycle;Max_cycle;Signal;HPM_P1;HPM_P2
2022/05/08 00:01:18;;;;;;;11.52;5.10;;;;;;;;;;4991313;28;20030;-64
2022/05/08 00:03:43;;;;;;;11.02;5.10;;;;;;;;;;4990551;28;20116;-64
2022/05/08 00:06:11;;;;;;;9.10;4.97;;;;;;;;;;4991845;28;20031;-65
2022/05/08 00:08:37;;;;;;;9.45;5.07;;;;;;;;;;4990214;28;20450;-64
2022/05/08 00:11:03;;;;;;;9.40;5.38;;;;;;;;;;4990449;28;20044;-64
2022/05/08 00:13:30;;;;;;;8.32;4.80;;;;;;;;;;4990329;28;20045;-65
2022/05/08 00:15:56;;;;;;;12.10;6.05;;;;;;;;;;4987560;28;20033;-65
2022/05/08 00:18:23;;;;;;;10.27;5.15;;;;;;;;;;4990173;28;20030;-64
2022/05/08 00:20:48;;;;;;;10.38;6.10;;;;;;;;;;4968747;28;20076;-64
2022/05/08 00:23:14;;;;;;;14.02;6.45;;;;;;;;;;4991195;28;20054;-64
2022/05/08 00:25:39;;;;;;;12.80;5.13;;;;;;;;;;4989959;28;20106;-65
2022/05/08 00:28:04;;;;;;;9.55;5.30;;;;;;;;;;4991518;28;20061;-65
2022/05/08 00:30:30;;;;;;;10.80;5.45;;;;;;;;;;4990340;28;20030;-66
2022/05/08 00:32:55;;;;;;;11.77;5.50;;;;;;;;;;4989791;28;20026;-65
2022/05/08 00:35:21;;;;;;;10.90;5.40;;;;;;;;;;4989740;28;20448;-65
2022/05/08 00:37:46;;;;;;;12.07;5.40;;;;;;;;;;4976228;28;20061;-65
2022/05/08 00:40:12;;;;;;;10.98;5.57;;;;;;;;;;4990889;28;20536;-65
2022/05/08 00:42:37;;;;;;;10.30;5.68;;;;;;;;;;4995275;28;20046;-65
2022/05/08 00:45:04;;;;;;;12.00;6.22;;;;;;;;;;4994205;28;20474;-64
2022/05/08 00:47:30;;;;;;;13.18;5.80;;;;;;;;;;4977678;28;20064;-65
2022/05/08 00:49:56;;;;;;;11.98;6.28;;;;;;;;;;4993556;28;20463;-64
2022/05/08 00:52:21;;;;;;;9.25;5.80;;;;;;;;;;4989428;28;20038;-64
2022/05/08 00:54:47;;;;;;;12.73;6.47;;;;;;;;;;4976271;28;20031;-65
2022/05/08 00:57:12;;;;;;;10.52;6.05;;;;;;;;;;4977123;28;20394;-65
2022/05/08 00:59:38;;;;;;;10.27;6.25;;;;;;;;;;4993669;28;20065;-65
2022/05/08 01:02:04;;;;;;;14.70;6.10;;;;;;;;;;4993161;28;20371;-65
2022/05/08 01:04:30;;;;;;;13.73;6.90;;;;;;;;;;4978514;28;20038;-66
2022/05/08 01:06:56;;;;;;;12.30;6.93;;;;;;;;;;4993351;28;20034;-65
2022/05/08 01:09:22;;;;;;;12.90;6.95;;;;;;;;;;4994786;28;20106;-65
2022/05/08 01:11:48;;;;;;;11.13;6.88;;;;;;;;;;4972373;28;20034;-65
2022/05/08 01:14:14;;;;;;;11.00;6.85;;;;;;;;;;4992148;28;20038;-64
2022/05/08 01:16:40;;;;;;;11.45;6.72;;;;;;;;;;4987177;28;20065;-64
2022/05/08 01:19:05;;;;;;;14.38;7.20;;;;;;;;;;4992574;28;20367;-65
2022/05/08 01:21:41;;;;;;;14.25;7.97;;;;;;;;;;4995475;28;20129;-65
2022/05/08 01:24:08;;;;;;;14.82;8.40;;;;;;;;;;4990039;28;20050;-64
2022/05/08 01:26:34;;;;;;;14.18;9.02;;;;;;;;;;4995318;28;20092;-65
2022/05/08 01:29:00;;;;;;;14.40;8.65;;;;;;;;;;4992794;28;20026;-64
2022/05/08 01:31:26;;;;;;;15.95;9.07;;;;;;;;;;4995127;28;20035;-64
2022/05/08 01:33:51;;;;;;;14.93;9.20;;;;;;;;;;4991624;28;20038;-64
2022/05/08 01:36:17;;;;;;;15.82;8.90;;;;;;;;;;4993760;28;20042;-66
2022/05/08 01:38:43;;;;;;;17.13;9.98;;;;;;;;;;4974828;28;20173;-65
2022/05/08 01:41:08;;;;;;;16.75;9.93;;;;;;;;;;4993384;28;20113;-65
2022/05/08 01:43:37;;;;;;;18.27;10.65;;;;;;;;;;4991474;28;20410;-66
2022/05/08 01:46:03;;;;;;;16.80;10.60;;;;;;;;;;4990346;28;20158;-64
2022/05/08 01:48:30;;;;;;;17.83;10.98;;;;;;;;;;4995035;28;20487;-65
2022/05/08 01:50:58;;;;;;;18.08;10.70;;;;;;;;;;4992341;28;20026;-64
2022/05/08 01:53:28;;;;;;;19.10;11.50;;;;;;;;;;4993015;28;20490;-66
2022/05/08 01:55:56;;;;;;;18.83;11.90;;;;;;;;;;4984853;28;20510;-65
2022/05/08 01:58:28;;;;;;;19.02;11.45;;;;;;;;;;4992787;28;20126;-65
2022/05/08 02:00:56;;;;;;;21.40;11.48;;;;;;;;;;4992622;28;20039;-65
2022/05/08 02:03:22;;;;;;;16.85;11.32;;;;;;;;;;4993367;28;20049;-64
2022/05/08 02:05:48;;;;;;;20.48;11.40;;;;;;;;;;4993998;28;20102;-65
2022/05/08 02:08:14;;;;;;;21.15;11.40;;;;;;;;;;4980652;28;20856;-64
2022/05/08 02:10:40;;;;;;;15.77;10.43;;;;;;;;;;4994661;28;20022;-65
2022/05/08 02:13:09;;;;;;;20.40;11.80;;;;;;;;;;4988040;28;20376;-66
2022/05/08 02:15:35;;;;;;;21.20;10.15;;;;;;;;;;4992623;28;20092;-65
2022/05/08 02:18:03;;;;;;;15.32;9.50;;;;;;;;;;4991951;28;20501;-65
2022/05/08 02:20:29;;;;;;;15.63;9.32;;;;;;;;;;4992396;28;20060;-65
2022/05/08 02:22:55;;;;;;;15.65;9.55;;;;;;;;;;4993605;28;20073;-64
2022/05/08 02:25:21;;;;;;;16.48;9.45;;;;;;;;;;4988036;28;20027;-65
2022/05/08 02:27:49;;;;;;;18.90;8.90;;;;;;;;;;4986170;28;20040;-65
2022/05/08 02:30:16;;;;;;;16.02;8.40;;;;;;;;;;4990276;28;20075;-65
2022/05/08 02:32:42;;;;;;;16.42;9.77;;;;;;;;;;4993978;28;20438;-65
2022/05/08 02:35:12;;;;;;;17.10;9.30;;;;;;;;;;4992813;28;20545;-68
2022/05/08 02:37:39;;;;;;;16.80;9.25;;;;;;;;;;4994949;28;20483;-65
2022/05/08 02:40:06;;;;;;;17.40;9.38;;;;;;;;;;4974461;28;20093;-65
2022/05/08 02:42:32;;;;;;;16.42;9.48;;;;;;;;;;4972908;28;20058;-65
2022/05/08 02:44:57;;;;;;;17.63;9.50;;;;;;;;;;4985614;28;20045;-64
2022/05/08 02:47:22;;;;;;;16.75;9.38;;;;;;;;;;4992907;28;20034;-64
2022/05/08 02:49:48;;;;;;;18.33;9.13;;;;;;;;;;4992788;28;20061;-66
2022/05/08 02:52:13;;;;;;;17.08;8.55;;;;;;;;;;4973066;28;20203;-65
2022/05/08 02:54:39;;;;;;;18.50;8.95;;;;;;;;;;4988830;28;20034;-66
2022/05/08 02:59:49;;;;;;;17.65;8.15;;;;;;;;;;4990196;28;20065;-64
2022/05/08 03:02:14;;;;;;;17.08;8.38;;;;;;;;;;4984795;28;20194;-65
2022/05/08 03:04:39;;;;;;;16.80;9.02;;;;;;;;;;4993138;28;20058;-65
2022/05/08 03:07:06;;;;;;;19.88;8.73;;;;;;;;;;4986209;28;20027;-67
2022/05/08 03:09:31;;;;;;;17.85;9.20;;;;;;;;;;4988799;28;20069;-65
2022/05/08 03:11:56;;;;;;;18.20;8.80;;;;;;;;;;4988741;28;20062;-65
2022/05/08 03:14:23;;;;;;;15.63;8.20;;;;;;;;;;4991752;28;20399;-64
2022/05/08 03:16:49;;;;;;;18.13;8.88;;;;;;;;;;4985819;28;20041;-65
2022/05/08 03:19:14;;;;;;;18.92;8.98;;;;;;;;;;4988626;28;20035;-65
2022/05/08 03:21:40;;;;;;;14.80;8.38;;;;;;;;;;4993332;28;20034;-65
2022/05/08 03:24:07;;;;;;;18.88;8.55;;;;;;;;;;4989874;28;20057;-65
2022/05/08 03:26:33;;;;;;;17.13;8.43;;;;;;;;;;4990700;28;20046;-65
2022/05/08 03:28:59;;;;;;;19.73;9.20;;;;;;;;;;4992370;28;20037;-66
2022/05/08 03:31:24;;;;;;;21.70;8.38;;;;;;;;;;4971119;28;20046;-65
2022/05/08 03:33:49;;;;;;;18.60;8.80;;;;;;;;;;4986070;28;20030;-65
2022/05/08 03:36:15;;;;;;;19.10;8.90;;;;;;;;;;4985008;28;20647;-66
2022/05/08 03:38:45;;;;;;;21.48;8.80;;;;;;;;;;4992048;28;20033;-65
2022/05/08 03:41:15;;;;;;;16.75;9.02;;;;;;;;;;4992258;28;20030;-65
2022/05/08 03:43:41;;;;;;;17.95;8.85;;;;;;;;;;4991344;28;20125;-65
2022/05/08 03:46:07;;;;;;;21.48;10.70;;;;;;;;;;4991284;28;20038;-65
2022/05/08 03:48:34;;;;;;;23.00;10.85;;;;;;;;;;4990247;28;20363;-66
2022/05/08 03:51:00;;;;;;;21.05;10.80;;;;;;;;;;4988606;28;20034;-65
2022/05/08 03:53:26;;;;;;;20.85;11.10;;;;;;;;;;4992774;28;20473;-67
2022/05/08 03:55:51;;;;;;;25.10;11.27;;;;;;;;;;4990436;28;20490;-65
2022/05/08 03:58:17;;;;;;;21.70;11.10;;;;;;;;;;4991855;28;20512;-67
2022/05/08 04:00:42;;;;;;;21.38;11.13;;;;;;;;;;4990546;28;20486;-65
2022/05/08 04:03:08;;;;;;;21.15;11.40;;;;;;;;;;4989879;28;20034;-65
2022/05/08 04:05:33;;;;;;;23.92;10.52;;;;;;;;;;4992647;28;20054;-65
2022/05/08 04:07:59;;;;;;;23.08;10.48;;;;;;;;;;4990030;28;20041;-65
2022/05/08 04:10:24;;;;;;;21.73;10.70;;;;;;;;;;4991900;28;20030;-64
2022/05/08 04:12:49;;;;;;;25.45;10.63;;;;;;;;;;4986205;28;20053;-64
2022/05/08 04:17:59;;;;;;;21.73;9.70;;;;;;;;;;4975862;28;20072;-65
2022/05/08 04:20:24;;;;;;;22.45;10.20;;;;;;;;;;4989738;28;20062;-64
2022/05/08 04:25:34;;;;;;;22.55;10.07;;;;;;;;;;4991962;28;20073;-64
2022/05/08 04:27:59;;;;;;;24.75;9.68;;;;;;;;;;4991059;28;20046;-65
2022/05/08 04:30:25;;;;;;;21.65;9.27;;;;;;;;;;4992072;28;20046;-66
2022/05/08 04:32:50;;;;;;;17.95;8.70;;;;;;;;;;4976974;28;20090;-66
2022/05/08 04:35:15;;;;;;;22.50;8.32;;;;;;;;;;4992664;28;20027;-65
2022/05/08 04:37:41;;;;;;;23.00;8.75;;;;;;;;;;4992339;28;20038;-66
2022/05/08 04:40:07;;;;;;;19.60;9.30;;;;;;;;;;4990305;28;20035;-66
2022/05/08 04:42:33;;;;;;;17.80;8.88;;;;;;;;;;4991907;28;20053;-67
2022/05/08 04:44:59;;;;;;;23.90;8.55;;;;;;;;;;4991581;28;20038;-66
2022/05/08 04:47:25;;;;;;;20.77;9.20;;;;;;;;;;4991869;28;20022;-67
2022/05/08 04:49:51;;;;;;;22.17;9.38;;;;;;;;;;4990958;28;20390;-65
2022/05/08 04:52:17;;;;;;;19.30;8.35;;;;;;;;;;4982766;28;20457;-66
2022/05/08 04:54:42;;;;;;;21.35;7.80;;;;;;;;;;4991581;28;20030;-65
2022/05/08 04:57:08;;;;;;;20.75;7.65;;;;;;;;;;4963904;28;20046;-75
2022/05/08 04:59:33;;;;;;;18.63;7.40;;;;;;;;;;4986996;28;20030;-70
2022/05/08 05:01:58;;;;;;;16.85;6.88;;;;;;;;;;4989846;28;20491;-68
2022/05/08 05:04:24;;;;;;;16.55;6.97;;;;;;;;;;4990550;28;20038;-70
2022/05/08 05:06:49;;;;;;;17.48;6.72;;;;;;;;;;4985137;28;20050;-70
2022/05/08 05:09:15;;;;;;;21.02;6.72;;;;;;;;;;4986343;28;20113;-69
2022/05/08 05:11:40;;;;;;;20.60;6.43;;;;;;;;;;4971593;28;20081;-68
2022/05/08 05:14:05;;;;;;;20.13;6.15;;;;;;;;;;4974620;28;20088;-67
2022/05/08 05:16:31;;;;;;;22.55;6.05;;;;;;;;;;4974160;28;20070;-68
2022/05/08 05:18:56;;;;;;;23.30;7.18;;;;;;;;;;4991142;28;20038;-69
2022/05/08 05:21:22;;;;;;;24.65;5.68;;;;;;;;;;4993807;28;20065;-68
2022/05/08 05:23:48;;;;;;;18.58;5.43;;;;;;;;;;4995450;28;20486;-68
2022/05/08 05:26:13;;;;;;;19.05;5.95;;;;;;;;;;4994801;28;20113;-67
2022/05/08 05:28:38;;;;;;;15.82;6.20;;;;;;;;;;4992045;28;20513;-65
2022/05/08 05:31:04;;;;;;;15.07;5.53;;;;;;;;;;4976757;28;20105;-66
2022/05/08 05:33:29;;;;;;;18.05;5.28;;;;;;;;;;4992459;28;20467;-67
2022/05/08 05:35:54;;;;;;;21.48;4.88;;;;;;;;;;4993986;28;20101;-67
2022/05/08 05:38:20;;;;;;;24.10;5.35;;;;;;;;;;4974795;28;20108;-68
2022/05/08 05:40:45;;;;;;;20.10;5.10;;;;;;;;;;4993512;28;20035;-67
2022/05/08 05:43:12;;;;;;;18.75;5.22;;;;;;;;;;4994192;28;20388;-66
2022/05/08 05:45:39;;;;;;;18.63;6.10;;;;;;;;;;4976504;28;20057;-67
2022/05/08 05:48:05;;;;;;;18.02;5.05;;;;;;;;;;4993462;28;20026;-66
2022/05/08 05:50:30;;;;;;;18.33;4.72;;;;;;;;;;4992718;28;20030;-68
2022/05/08 05:52:55;;;;;;;20.20;5.38;;;;;;;;;;4988790;28;20133;-68
2022/05/08 05:55:21;;;;;;;15.35;4.57;;;;;;;;;;4994064;28;20030;-67
2022/05/08 05:57:46;;;;;;;13.88;4.43;;;;;;;;;;4988442;28;20030;-67
2022/05/08 06:00:17;;;;;;;16.63;4.18;;;;;;;;;;4994087;28;20493;-68
2022/05/08 06:02:43;;;;;;;15.47;4.13;;;;;;;;;;4994182;28;20030;-70
2022/05/08 06:05:16;;;;;;;17.85;4.80;;;;;;;;;;4992315;28;20081;-67
2022/05/08 06:07:44;;;;;;;17.05;4.60;;;;;;;;;;4987828;28;20093;-69
2022/05/08 06:10:11;;;;;;;21.25;4.65;;;;;;;;;;4980925;28;20466;-68
2022/05/08 06:12:37;;;;;;;17.73;4.95;;;;;;;;;;4989706;28;20034;-69
2022/05/08 06:15:03;;;;;;;17.10;4.72;;;;;;;;;;4976411;28;20037;-67
2022/05/08 06:17:28;;;;;;;16.98;4.60;;;;;;;;;;4976812;28;20137;-67
2022/05/08 06:19:54;;;;;;;18.48;4.53;;;;;;;;;;4988885;28;20110;-67
2022/05/08 06:22:19;;;;;;;21.13;4.80;;;;;;;;;;4982148;28;20387;-67
2022/05/08 06:24:45;;;;;;;13.48;4.18;;;;;;;;;;4994356;28;20077;-67
2022/05/08 06:27:10;;;;;;;16.98;4.28;;;;;;;;;;4991551;28;20034;-66
2022/05/08 06:29:36;;;;;;;13.88;4.30;;;;;;;;;;4976532;28;20088;-67
2022/05/08 06:32:02;;;;;;;16.85;3.97;;;;;;;;;;4992595;28;20593;-66
2022/05/08 06:34:27;;;;;;;17.25;4.18;;;;;;;;;;4991765;28;20113;-66
2022/05/08 06:36:54;;;;;;;12.73;4.30;;;;;;;;;;4991447;28;20110;-67
2022/05/08 06:39:19;;;;;;;17.27;4.13;;;;;;;;;;4981376;28;20100;-66
2022/05/08 06:41:47;;;;;;;18.17;4.18;;;;;;;;;;4993238;28;20470;-66
2022/05/08 06:44:15;;;;;;;15.45;3.83;;;;;;;;;;4970584;28;20030;-66
2022/05/08 06:46:40;;;;;;;14.32;3.50;;;;;;;;;;4992236;28;20084;-65
2022/05/08 06:49:07;;;;;;;18.80;3.95;;;;;;;;;;4982262;28;20026;-68
2022/05/08 06:51:35;;;;;;;18.08;4.00;;;;;;;;;;4992418;28;20034;-68
2022/05/08 06:54:01;;;;;;;14.20;3.50;;;;;;;;;;4988604;28;20030;-68
2022/05/08 06:56:30;;;;;;;17.60;4.22;;;;;;;;;;4974136;28;20141;-67
2022/05/08 07:01:42;;;;;;;13.10;3.65;;;;;;;;;;4979126;28;20041;-68
2022/05/08 07:04:09;;;;;;;12.77;3.95;;;;;;;;;;4974193;28;20062;-66
2022/05/08 07:06:35;;;;;;;14.02;4.03;;;;;;;;;;4974043;28;20038;-67
2022/05/08 07:09:01;;;;;;;20.77;3.92;;;;;;;;;;4989593;28;20052;-68
2022/05/08 07:11:26;;;;;;;16.42;3.83;;;;;;;;;;4975390;28;20030;-68
2022/05/08 07:13:52;;;;;;;11.90;3.65;;;;;;;;;;4993510;28;20387;-67
2022/05/08 07:16:18;;;;;;;15.02;3.67;;;;;;;;;;4992449;28;20061;-67
2022/05/08 07:18:43;;;;;;;14.77;4.07;;;;;;;;;;4993502;28;20486;-67
2022/05/08 07:21:08;;;;;;;17.27;4.22;;;;;;;;;;4975931;28;20030;-68
2022/05/08 07:23:34;;;;;;;15.35;3.83;;;;;;;;;;4977523;28;20455;-68
2022/05/08 07:25:59;;;;;;;16.30;3.70;;;;;;;;;;4989864;28;20026;-67
2022/05/08 07:28:27;;;;;;;14.07;3.60;;;;;;;;;;4992350;28;20070;-67
2022/05/08 07:30:53;;;;;;;12.35;3.60;;;;;;;;;;4975772;28;20447;-68
2022/05/08 07:33:19;;;;;;;15.80;3.70;;;;;;;;;;4985583;28;20093;-67
2022/05/08 07:38:30;;;;;;;15.32;3.95;;;;;;;;;;4991117;28;20108;-69
2022/05/08 07:40:56;;;;;;;13.90;3.45;;;;;;;;;;4993116;28;20419;-68
2022/05/08 07:43:22;;;;;;;15.80;3.80;;;;;;;;;;4985940;28;20425;-70
2022/05/08 07:45:47;;;;;;;13.70;3.55;;;;;;;;;;4992955;28;20038;-68
2022/05/08 07:48:13;;;;;;;7.82;3.20;;;;;;;;;;4990971;28;20078;-68
2022/05/08 07:50:38;;;;;;;16.50;3.60;;;;;;;;;;4971127;28;20129;-69
2022/05/08 07:53:04;;;;;;;12.48;3.15;;;;;;;;;;4971082;28;20031;-70
2022/05/08 07:55:31;;;;;;;13.60;3.40;;;;;;;;;;4972317;28;20416;-70
2022/05/08 07:57:56;;;;;;;13.38;3.75;;;;;;;;;;4979373;28;20042;-68
2022/05/08 08:00:22;;;;;;;14.13;3.85;;;;;;;;;;4989626;28;20038;-69
2022/05/08 08:02:47;;;;;;;14.20;3.75;;;;;;;;;;4989909;28;20026;-68
2022/05/08 08:05:13;;;;;;;13.40;3.40;;;;;;;;;;4990247;28;20474;-69
2022/05/08 08:07:39;;;;;;;15.50;3.60;;;;;;;;;;4990808;28;20091;-68
2022/05/08 08:10:05;;;;;;;12.15;3.50;;;;;;;;;;4992082;28;20058;-69
2022/05/08 08:12:31;;;;;;;10.48;3.55;;;;;;;;;;4973631;28;20050;-68
2022/05/08 08:14:57;;;;;;;12.57;3.50;;;;;;;;;;4992616;28;20026;-67
2022/05/08 08:17:22;;;;;;;16.15;3.70;;;;;;;;;;4988163;28;20042;-69
2022/05/08 08:19:48;;;;;;;14.00;3.60;;;;;;;;;;4990900;28;20042;-67
2022/05/08 08:22:13;;;;;;;12.80;3.67;;;;;;;;;;4991393;28;20045;-67
2022/05/08 08:24:40;;;;;;;13.13;3.55;;;;;;;;;;4990843;28;20037;-68
2022/05/08 08:27:07;;;;;;;13.05;3.42;;;;;;;;;;4980016;28;20034;-67
2022/05/08 08:29:32;;;;;;;13.30;3.83;;;;;;;;;;4973595;28;20042;-67
2022/05/08 08:31:58;;;;;;;16.55;3.83;;;;;;;;;;4985499;28;20032;-67
2022/05/08 08:34:23;;;;;;;14.18;3.38;;;;;;;;;;4990524;28;20034;-67
2022/05/08 08:36:49;;;;;;;12.18;3.53;;;;;;;;;;4990741;28;20045;-67
2022/05/08 08:39:15;;;;;;;12.10;3.67;;;;;;;;;;4977438;28;20031;-67
2022/05/08 08:41:43;;;;;;;14.35;3.75;;;;;;;;;;4980263;28;20046;-68
2022/05/08 08:49:51;;;;;;;13.35;3.78;;;;;;;;;;4991197;28;20033;-66
2022/05/08 08:52:20;;;;;;;13.98;3.88;;;;;;;;;;4991473;28;20034;-66
2022/05/08 08:54:46;;;;;;;11.90;3.65;;;;;;;;;;4992124;28;20030;-67
2022/05/08 08:57:11;;;;;;;13.15;3.78;;;;;;;;;;4996072;28;20034;-67
2022/05/08 08:59:37;;;;;;;13.70;4.10;;;;;;;;;;4995305;28;20069;-69
2022/05/08 09:02:02;;;;;;;9.30;3.33;;;;;;;;;;4993096;28;20380;-67
2022/05/08 09:04:28;;;;;;;10.30;3.55;;;;;;;;;;4995406;28;20490;-67
2022/05/08 09:06:54;;;;;;;13.82;3.70;;;;;;;;;;4995840;28;20463;-67
2022/05/08 09:09:28;;;;;;;16.70;3.90;;;;;;;;;;4995137;28;20037;-67
2022/05/08 09:11:55;;;;;;;15.85;3.72;;;;;;;;;;4995973;28;20030;-66
2022/05/08 09:14:35;;;;;;;12.05;3.35;;;;;;;;;;4973323;28;20039;-67
2022/05/08 09:17:06;;;;;;;10.05;3.40;;;;;;;;;;4975186;28;20391;-66
2022/05/08 09:19:38;;;;;;;12.32;3.30;;;;;;;;;;4990538;28;20030;-67
2022/05/08 09:22:05;;;;;;;13.80;3.75;;;;;;;;;;4976375;28;20074;-68
2022/05/08 09:24:31;;;;;;;14.82;3.28;;;;;;;;;;4975089;28;20031;-67
2022/05/08 09:27:14;;;;;;;13.60;3.92;;;;;;;;;;4975935;28;20472;-66
2022/05/08 09:29:40;;;;;;;12.80;4.20;;;;;;;;;;4986297;28;20018;-66
2022/05/08 09:32:06;;;;;;;13.35;3.60;;;;;;;;;;4995426;28;20490;-65
2022/05/08 09:34:58;;;;;;;13.15;3.92;;;;;;;;;;4994631;28;20037;-66
2022/05/08 09:37:27;;;;;;;11.63;3.65;;;;;;;;;;4994525;28;20368;-66
2022/05/08 09:40:19;;;;;;;14.18;4.45;;;;;;;;;;4995321;28;20038;-66
2022/05/08 09:42:45;;;;;;;16.75;3.28;;;;;;;;;;4995197;28;20042;-66
2022/05/08 09:45:11;;;;;;;12.77;3.42;;;;;;;;;;4991561;28;20062;-66
2022/05/08 09:47:48;;;;;;;13.70;3.60;;;;;;;;;;4994328;28;20620;-66
2022/05/08 09:50:15;;;;;;;12.18;4.20;;;;;;;;;;4995384;28;20041;-67
2022/05/08 09:52:42;;;;;;;11.50;3.80;;;;;;;;;;4994420;28;20463;-67
2022/05/08 09:55:09;;;;;;;13.70;3.88;;;;;;;;;;4994942;28;20030;-67
2022/05/08 09:57:35;;;;;;;14.75;3.60;;;;;;;;;;4976821;28;20100;-66
2022/05/08 10:00:03;;;;;;;12.23;3.58;;;;;;;;;;4981019;28;20061;-66
2022/05/08 10:03:31;;;;;;;12.57;3.75;;;;;;;;;;4974736;28;20080;-66
2022/05/08 10:05:38;;;;;;;12.70;3.65;;;;;;;;;;4965615;28;20038;-66
2022/05/08 10:08:05;;;;;;;11.10;3.80;;;;;;;;;;4975636;28;20037;-66
2022/05/08 10:14:00;;;;;;;11.82;3.55;;;;;;;;;;4976211;28;20045;-66
2022/05/08 10:16:47;;;;;;;8.95;3.72;;;;;;;;;;4974431;28;20066;-66
2022/05/08 10:19:18;;;;;;;12.65;3.90;;;;;;;;;;4975115;28;20026;-66
2022/05/08 10:21:56;;;;;;;15.20;4.05;;;;;;;;;;4974390;28;20038;-66
2022/05/08 10:24:28;;;;;;;11.73;3.80;;;;;;;;;;4974476;28;20034;-67
2022/05/08 10:27:15;;;;;;;8.93;3.70;;;;;;;;;;4974652;28;20034;-67
2022/05/08 10:30:04;;;;;;;12.68;3.88;;;;;;;;;;4988067;28;20074;-66
2022/05/08 10:32:32;;;;;;;15.75;3.90;;;;;;;;;;4986994;28;20049;-67
2022/05/08 10:35:09;;;;;;;11.27;3.47;;;;;;;;;;4994272;28;20033;-66
2022/05/08 10:37:38;;;;;;;12.35;3.85;;;;;;;;;;4993995;28;20471;-66
2022/05/08 10:40:24;;;;;;;14.07;3.65;;;;;;;;;;4994154;28;20027;-67
2022/05/08 10:42:57;;;;;;;11.18;3.90;;;;;;;;;;4993020;28;20050;-67
2022/05/08 10:45:32;;;;;;;11.45;3.60;;;;;;;;;;4976327;28;20034;-67
2022/05/08 10:47:59;;;;;;;10.63;3.92;;;;;;;;;;4993633;28;20070;-66
2022/05/08 10:50:24;;;;;;;12.15;3.58;;;;;;;;;;4993335;28;20023;-66
2022/05/08 10:52:50;;;;;;;14.38;4.00;;;;;;;;;;4993061;28;20540;-66
2022/05/08 10:55:17;;;;;;;10.93;4.05;;;;;;;;;;4994234;28;20084;-66
2022/05/08 10:57:47;;;;;;;10.48;3.58;;;;;;;;;;4992912;28;20026;-66
2022/05/08 11:00:23;;;;;;;10.00;3.80;;;;;;;;;;4992600;28;20120;-66
2022/05/08 11:03:01;;;;;;;11.43;3.58;;;;;;;;;;4993418;28;20530;-66
2022/05/08 11:05:29;;;;;;;9.73;3.90;;;;;;;;;;4992977;28;20030;-67
2022/05/08 11:08:00;;;;;;;10.05;4.10;;;;;;;;;;4993861;28;20032;-67
2022/05/08 11:10:29;;;;;;;15.20;4.68;;;;;;;;;;4993184;28;20038;-66
2022/05/08 11:13:04;;;;;;;10.73;3.90;;;;;;;;;;4990068;28;20052;-65
2022/05/08 11:15:35;;;;;;;11.05;4.10;;;;;;;;;;4973137;28;20071;-65
2022/05/08 11:18:04;;;;;;;;;;;;;;;;;;4973663;28;20038;-65
2022/05/08 11:20:31;;;;;;;13.50;4.00;;;;;;;;;;4973256;28;19910;-65
2022/05/08 11:22:57;;;;;;;11.57;4.03;;;;;;;;;;4956801;28;20113;-65
2022/05/08 11:25:23;;;;;;;11.68;3.75;;;;;;;;;;4973825;28;20207;-65
2022/05/08 11:27:58;;;;;;;10.85;3.80;;;;;;;;;;4973483;28;20113;-65
2022/05/08 11:30:35;;;;;;;11.68;4.40;;;;;;;;;;4973527;28;20039;-65
2022/05/08 11:36:06;;;;;;;13.00;3.50;;;;;;;;;;4972992;28;20502;-65
2022/05/08 11:38:45;;;;;;;11.07;4.13;;;;;;;;;;4973005;28;20043;-65
2022/05/08 11:41:11;;;;;;;12.07;3.72;;;;;;;;;;4973787;28;20062;-65
2022/05/08 11:43:42;;;;;;;12.45;3.88;;;;;;;;;;4978864;28;20495;-65
2022/05/08 11:46:09;;;;;;;14.05;3.50;;;;;;;;;;4972514;28;20043;-65
2022/05/08 11:48:37;;;;;;;10.68;3.65;;;;;;;;;;4972778;28;20026;-65
2022/05/08 11:51:07;;;;;;;10.32;3.40;;;;;;;;;;4973567;28;20043;-65
2022/05/08 11:53:40;;;;;;;12.55;3.83;;;;;;;;;;4972786;28;20045;-65
2022/05/08 11:56:26;;;;;;;11.43;3.88;;;;;;;;;;4973446;28;20046;-65
2022/05/08 11:58:52;;;;;;;8.50;3.50;;;;;;;;;;4985054;28;20041;-66
2022/05/08 12:01:32;;;;;;;10.15;3.28;;;;;;;;;;4992848;28;20026;-66
2022/05/08 12:04:21;;;;;;;10.13;3.05;;;;;;;;;;4990817;28;20046;-66
2022/05/08 12:07:01;;;;;;;9.45;3.35;;;;;;;;;;4989325;28;20049;-67
2022/05/08 12:09:28;;;;;;;7.13;3.05;;;;;;;;;;4992514;28;20039;-66
2022/05/08 12:11:53;;;;;;;8.63;3.20;;;;;;;;;;4992176;28;20417;-66
2022/05/08 12:14:30;;;;;;;8.57;3.40;;;;;;;;;;4992737;28;20023;-66
2022/05/08 12:17:01;;;;;;;10.02;3.30;;;;;;;;;;4992619;28;20083;-66
2022/05/08 12:19:26;;;;;;;9.95;3.28;;;;;;;;;;4992374;28;20037;-66
2022/05/08 12:21:54;;;;;;;10.75;3.45;;;;;;;;;;4990680;28;20031;-66
2022/05/08 12:24:21;;;;;;;8.90;3.28;;;;;;;;;;4992532;28;20046;-66
2022/05/08 12:26:46;;;;;;;9.68;3.03;;;;;;;;;;4991561;28;20223;-67
2022/05/08 12:29:21;;;;;;;7.50;2.90;;;;;;;;;;4985102;28;20034;-67
2022/05/08 12:31:50;;;;;;;9.73;3.42;;;;;;;;;;4978715;28;20219;-69
2022/05/08 12:34:19;;;;;;;10.18;3.20;;;;;;;;;;4979521;28;20166;-68
2022/05/08 12:36:44;;;;;;;8.15;3.03;;;;;;;;;;4990467;28;20026;-67
2022/05/08 12:39:10;;;;;;;10.15;3.42;;;;;;;;;;4999007;28;20131;-68
2022/05/08 12:41:37;;;;;;;8.93;3.00;;;;;;;;;;4998106;28;20061;-67
2022/05/08 12:44:04;;;;;;;10.13;2.92;;;;;;;;;;4999197;28;20069;-68
2022/05/08 12:46:29;;;;;;;8.50;2.67;;;;;;;;;;4998302;28;20562;-67
2022/05/08 12:49:01;;;;;;;8.25;3.03;;;;;;;;;;4996186;28;20062;-68
2022/05/08 12:51:28;;;;;;;10.35;3.10;;;;;;;;;;4997386;28;20041;-68
2022/05/08 12:53:55;;;;;;;8.68;3.00;;;;;;;;;;4998038;28;20031;-68
2022/05/08 12:56:20;;;;;;;6.75;2.42;;;;;;;;;;4998630;28;20037;-69
2022/05/08 13:01:29;;;;;;;9.20;3.13;;;;;;;;;;4978713;28;20041;-68
2022/05/08 13:03:55;;;;;;;9.07;3.00;;;;;;;;;;4978689;28;20113;-68
2022/05/08 13:06:20;;;;;;;7.28;2.58;;;;;;;;;;4979913;28;20399;-68
2022/05/08 13:08:46;;;;;;;7.15;2.53;;;;;;;;;;4997563;28;20034;-68
2022/05/08 13:11:11;;;;;;;10.85;2.92;;;;;;;;;;4998698;28;20034;-68
2022/05/08 13:13:37;;;;;;;5.70;2.30;;;;;;;;;;4997749;28;20061;-68
2022/05/08 13:16:04;;;;;;;7.20;2.25;;;;;;;;;;4998164;28;20041;-68
2022/05/08 13:18:30;;;;;;;7.85;2.60;;;;;;;;;;4998645;28;20085;-68
2022/05/08 13:20:55;;;;;;;8.32;2.40;;;;;;;;;;4995010;28;20442;-68
2022/05/08 13:23:21;;;;;;;5.43;2.35;;;;;;;;;;4993030;28;20433;-68
2022/05/08 13:25:46;;;;;;;7.03;2.58;;;;;;;;;;4996254;28;20037;-68
2022/05/08 13:28:11;;;;;;;6.03;2.10;;;;;;;;;;4997145;28;20037;-68
2022/05/08 13:30:37;;;;;;;5.72;2.33;;;;;;;;;;4996481;28;20530;-68
2022/05/08 13:33:03;;;;;;;5.32;2.20;;;;;;;;;;4997090;28;20042;-69
2022/05/08 13:35:28;;;;;;;6.88;2.20;;;;;;;;;;4997588;28;20037;-68
2022/05/08 13:37:53;;;;;;;5.15;2.10;;;;;;;;;;4984622;28;20134;-69
2022/05/08 13:40:19;;;;;;;7.38;2.40;;;;;;;;;;4989269;28;20082;-69
2022/05/08 13:42:44;;;;;;;5.88;2.10;;;;;;;;;;4974503;28;20047;-68
2022/05/08 13:45:10;;;;;;;7.30;2.50;;;;;;;;;;4991658;28;20061;-69
2022/05/08 13:47:36;;;;;;;8.20;2.25;;;;;;;;;;4994205;28;20030;-67
2022/05/08 13:50:06;;;;;;;8.10;2.40;;;;;;;;;;4991597;28;20462;-68
2022/05/08 13:52:31;;;;;;;;;;;;;;;;;;4976361;28;20038;-68
2022/05/08 13:54:57;;;;;;;7.55;2.45;;;;;;;;;;4987381;28;19920;-68
2022/05/08 13:57:22;;;;;;;6.40;2.20;;;;;;;;;;4978691;28;20034;-69
2022/05/08 13:59:47;;;;;;;6.22;2.40;;;;;;;;;;4994145;28;20039;-70
2022/05/08 14:02:14;;;;;;;6.10;2.30;;;;;;;;;;4993489;28;20064;-70
2022/05/08 14:04:42;;;;;;;7.72;2.50;;;;;;;;;;4986321;28;20027;-69
2022/05/08 14:07:07;;;;;;;6.75;2.72;;;;;;;;;;4976978;28;20035;-68
2022/05/08 14:09:33;;;;;;;7.57;2.40;;;;;;;;;;4994666;28;20404;-68
2022/05/08 14:11:59;;;;;;;5.75;2.00;;;;;;;;;;4993541;28;20046;-68
2022/05/08 14:14:26;;;;;;;5.32;2.15;;;;;;;;;;4987542;28;20141;-70
2022/05/08 14:16:52;;;;;;;8.30;2.13;;;;;;;;;;4990104;28;20113;-69
2022/05/08 14:19:18;;;;;;;5.80;2.60;;;;;;;;;;4993805;28;20506;-69
2022/05/08 14:21:43;;;;;;;6.72;2.33;;;;;;;;;;4994354;28;20045;-69
2022/05/08 14:24:08;;;;;;;8.52;1.90;;;;;;;;;;4993001;28;20030;-69
2022/05/08 14:26:34;;;;;;;5.53;2.05;;;;;;;;;;4986947;28;20117;-66
2022/05/08 14:28:59;;;;;;;8.07;2.00;;;;;;;;;;4993743;28;20416;-69
2022/05/08 14:37:06;;;;;;;7.00;2.20;;;;;;;;;;4946783;28;20050;-68
2022/05/08 14:39:31;;;;;;;4.97;1.80;;;;;;;;;;4994084;28;20030;-68
2022/05/08 14:41:57;;;;;;;4.47;1.75;;;;;;;;;;4980834;28;20125;-68
2022/05/08 14:44:22;;;;;;;4.82;2.08;;;;;;;;;;4983268;28;20049;-69
2022/05/08 14:46:48;;;;;;;6.90;2.13;;;;;;;;;;4992038;28;20038;-70
2022/05/08 14:49:13;;;;;;;4.20;1.85;;;;;;;;;;4994342;28;20042;-69
2022/05/08 14:51:38;;;;;;;5.25;1.85;;;;;;;;;;4985447;28;20022;-66
2022/05/08 14:54:04;;;;;;;5.53;2.15;;;;;;;;;;4992166;28;20084;-68
2022/05/08 14:56:29;;;;;;;3.10;1.50;;;;;;;;;;4969321;28;20438;-68
2022/05/08 14:58:55;;;;;;;4.55;1.77;;;;;;;;;;4981952;28;20182;-68
2022/05/08 15:01:20;;;;;;;5.97;1.50;;;;;;;;;;4991954;28;20038;-69
2022/05/08 15:03:46;;;;;;;6.93;1.90;;;;;;;;;;4991902;28;20109;-69
2022/05/08 15:06:12;;;;;;;5.57;1.73;;;;;;;;;;4993488;28;20035;-68
2022/05/08 15:08:37;;;;;;;3.97;1.70;;;;;;;;;;4991121;28;20049;-68